createdAt,value
2022-11-02T00:03:47.930Z,100.00
2022-11-02T00:08:53.833Z,100.00
2022-11-02T00:13:59.718Z,100.00
2022-11-02T00:19:06.656Z,100.00
2022-11-02T00:24:12.859Z,100.00
2022-11-02T00:29:18.902Z,100.00
2022-11-02T00:34:25.544Z,100.00
2022-11-02T00:39:31.557Z,100.00
2022-11-02T00:44:37.501Z,100.00
2022-11-02T00:49:43.636Z,100.00
2022-11-02T00:54:50.442Z,100.00
2022-11-02T00:59:57.233Z,100.00
2022-11-02T01:05:03.262Z,100.00
2022-11-02T01:10:10.595Z,100.00
2022-11-02T01:15:16.785Z,100.00
2022-11-02T01:20:23.298Z,100.00
2022-11-02T01:25:29.234Z,100.00
2022-11-02T01:30:38.162Z,100.00
2022-11-02T01:35:44.454Z,100.00
2022-11-02T01:40:50.322Z,100.00
2022-11-02T01:46:00.118Z,100.00
2022-11-02T01:51:09.664Z,100.00
2022-11-02T01:56:18.234Z,100.00
2022-11-02T02:01:26.326Z,100.00
2022-11-02T02:06:32.688Z,100.00
2022-11-02T02:11:40.718Z,100.00
2022-11-02T02:16:57.296Z,100.00
2022-11-02T02:22:26.947Z,100.00
2022-11-02T02:27:46.484Z,100.00
2022-11-02T02:32:57.537Z,100.00
2022-11-02T02:38:07.756Z,100.00
2022-11-02T02:43:21.073Z,100.00
2022-11-02T02:48:27.387Z,100.00
2022-11-02T02:53:38.722Z,100.00
2022-11-02T02:58:52.994Z,100.00
2022-11-02T03:03:59.635Z,100.00
2022-11-02T03:09:16.778Z,100.00
2022-11-02T03:14:38.457Z,100.00
2022-11-02T03:19:53.246Z,100.00
2022-11-02T03:25:10.368Z,100.00
2022-11-02T03:30:19.981Z,100.00
2022-11-02T03:35:36.015Z,100.00
2022-11-02T03:40:47.062Z,100.00
2022-11-02T03:45:55.972Z,100.00
2022-11-02T03:51:08.829Z,100.00
2022-11-02T03:56:21.444Z,100.00
2022-11-02T04:01:29.639Z,100.00
2022-11-02T04:06:36.996Z,100.00
2022-11-02T04:12:01.923Z,100.00
2022-11-02T04:17:28.775Z,100.00
2022-11-02T04:22:54.001Z,100.00
2022-11-02T04:28:08.999Z,100.00
2022-11-02T04:33:35.265Z,100.00
2022-11-02T04:38:53.725Z,100.00
2022-11-02T04:44:04.253Z,100.00
2022-11-02T04:49:11.247Z,100.00
2022-11-02T04:54:17.258Z,100.00
2022-11-02T04:59:23.666Z,100.00
2022-11-02T05:04:29.813Z,100.00
2022-11-02T05:09:36.105Z,100.00
2022-11-02T05:14:42.693Z,100.00
2022-11-02T05:19:48.940Z,100.00
2022-11-02T05:24:54.863Z,100.00
2022-11-02T05:30:02.037Z,100.00
2022-11-02T05:35:09.725Z,100.00
2022-11-02T05:40:17.666Z,100.00
2022-11-02T05:45:24.903Z,100.00
2022-11-02T05:50:31.014Z,100.00
2022-11-02T05:55:38.683Z,100.00
2022-11-02T06:00:44.617Z,100.00
2022-11-02T06:05:57.904Z,100.00
2022-11-02T06:11:06.859Z,100.00
2022-11-02T06:16:18.703Z,100.00
2022-11-02T06:21:28.458Z,100.00
2022-11-02T06:26:34.248Z,100.00
2022-11-02T06:31:40.315Z,100.00
2022-11-02T06:36:46.286Z,100.00
2022-11-02T06:41:52.814Z,100.00
2022-11-02T06:46:59.236Z,100.00
2022-11-02T06:52:05.435Z,100.00
2022-11-02T06:57:11.303Z,100.00
2022-11-02T07:02:17.329Z,100.00
2022-11-02T07:07:23.486Z,100.00
2022-11-02T07:12:31.557Z,100.00
2022-11-02T07:17:41.169Z,100.00
2022-11-02T07:22:55.863Z,100.00
2022-11-02T07:28:02.912Z,100.00
2022-11-02T07:33:09.038Z,100.00
2022-11-02T07:38:15.329Z,100.00
2022-11-02T07:43:21.626Z,100.00
2022-11-02T07:48:36.152Z,98.72
2022-11-02T07:53:42.610Z,93.42
2022-11-02T07:58:49.101Z,88.25
2022-11-02T08:03:56.511Z,84.25
2022-11-02T08:09:03.322Z,82.48
2022-11-02T08:14:29.141Z,82.76
2022-11-02T08:19:35.239Z,83.56
2022-11-02T08:24:41.293Z,83.06
2022-11-02T08:29:47.106Z,82.56
2022-11-02T08:34:53.120Z,82.03
2022-11-02T08:39:59.000Z,80.80
2022-11-02T08:45:06.168Z,80.41
2022-11-02T08:50:13.672Z,81.54
2022-11-02T08:55:21.136Z,82.33
2022-11-02T09:00:30.089Z,81.39
2022-11-02T09:05:37.932Z,79.34
2022-11-02T09:10:46.021Z,78.45
2022-11-02T09:15:53.833Z,78.67
2022-11-02T09:21:03.820Z,79.32
2022-11-02T09:26:09.649Z,79.51
2022-11-02T09:31:15.585Z,80.20
2022-11-02T09:36:21.819Z,81.04
2022-11-02T09:41:36.668Z,82.07
2022-11-02T09:46:46.040Z,82.24
2022-11-02T09:51:55.312Z,82.46
2022-11-02T09:57:05.385Z,82.63
2022-11-02T10:02:25.312Z,82.66
2022-11-02T10:07:57.315Z,83.35
2022-11-02T10:13:14.736Z,82.84
2022-11-02T10:18:24.663Z,83.68
2022-11-02T10:23:33.681Z,84.03
2022-11-02T10:28:43.933Z,84.93
2022-11-02T10:33:52.867Z,85.61
2022-11-02T10:39:12.554Z,86.32
2022-11-02T10:44:32.947Z,86.93
2022-11-02T10:49:58.518Z,87.44
2022-11-02T10:55:05.117Z,88.11
2022-11-02T11:00:26.992Z,88.32
2022-11-02T11:05:33.941Z,88.54
2022-11-02T11:10:40.680Z,88.52
2022-11-02T11:15:52.642Z,88.50
2022-11-02T11:20:59.693Z,88.88
2022-11-02T11:26:12.157Z,89.22
2022-11-02T11:31:19.753Z,89.58
2022-11-02T11:36:30.389Z,89.92
2022-11-02T11:41:43.758Z,90.13
2022-11-02T11:46:54.209Z,89.92
2022-11-02T11:52:02.734Z,89.33
2022-11-02T11:57:28.297Z,88.29
2022-11-02T12:02:40.951Z,86.30
2022-11-02T12:08:20.452Z,85.20
2022-11-02T12:13:45.646Z,85.44
2022-11-02T12:19:04.507Z,85.98
2022-11-02T12:24:33.616Z,86.73
2022-11-02T12:30:01.402Z,86.91
2022-11-02T12:35:32.234Z,86.43
2022-11-02T12:40:54.751Z,85.02
2022-11-02T12:46:07.722Z,82.33
2022-11-02T12:51:16.735Z,81.52
2022-11-02T12:56:26.449Z,81.76
2022-11-02T13:01:35.984Z,81.16
2022-11-02T13:06:44.529Z,80.71
2022-11-02T13:12:06.194Z,80.67
2022-11-02T13:17:17.967Z,80.59
2022-11-02T13:22:32.116Z,80.19
2022-11-02T13:27:46.107Z,80.16
2022-11-02T13:32:58.753Z,80.53
2022-11-02T13:38:13.567Z,80.44
2022-11-02T13:43:47.947Z,80.66
2022-11-02T13:48:59.152Z,81.24
2022-11-02T13:54:07.105Z,81.73
2022-11-02T13:59:23.619Z,82.78
2022-11-02T14:04:37.904Z,83.24
2022-11-02T14:09:45.724Z,83.59
2022-11-02T14:15:46.615Z,82.79
2022-11-02T14:20:52.893Z,82.49
2022-11-02T14:25:59.610Z,82.88
2022-11-02T14:31:31.638Z,83.39
2022-11-02T14:36:55.449Z,83.82
2022-11-02T14:42:19.672Z,84.43
2022-11-02T14:47:29.906Z,85.07
2022-11-02T14:52:37.807Z,85.50
2022-11-02T14:57:52.595Z,86.24
2022-11-02T15:03:00.702Z,86.96
2022-11-02T15:08:09.305Z,87.61
2022-11-02T15:13:39.988Z,88.25
2022-11-02T15:18:46.066Z,88.82
2022-11-02T15:24:16.982Z,89.19
2022-11-02T15:29:37.059Z,89.63
2022-11-02T15:34:48.050Z,89.93
2022-11-02T15:39:57.097Z,90.18
2022-11-02T15:45:51.856Z,90.53
2022-11-02T15:51:14.470Z,90.63
2022-11-02T15:56:39.895Z,91.35
2022-11-02T16:01:46.120Z,91.59
2022-11-02T16:06:53.205Z,91.73
2022-11-02T16:12:13.192Z,91.88
2022-11-02T16:17:24.820Z,92.23
2022-11-02T16:22:31.001Z,92.47
2022-11-02T16:27:40.705Z,92.69
2022-11-02T16:32:49.786Z,92.86
2022-11-02T16:37:56.192Z,93.15
2022-11-02T16:43:02.189Z,93.45
2022-11-02T16:48:21.738Z,93.37
2022-11-02T16:53:32.014Z,93.42
2022-11-02T16:58:38.142Z,93.84
2022-11-02T17:03:44.170Z,94.16
2022-11-02T17:08:55.502Z,96.40
2022-11-02T17:14:02.696Z,98.81
2022-11-02T17:19:46.905Z,99.94
2022-11-02T17:25:04.783Z,100.00
2022-11-02T17:30:40.615Z,100.00
2022-11-02T17:35:50.582Z,99.63
2022-11-02T17:40:59.224Z,99.06
2022-11-02T17:46:05.213Z,98.60
2022-11-02T17:51:15.483Z,98.62
2022-11-02T17:56:22.429Z,98.83
2022-11-02T18:01:28.807Z,98.78
2022-11-02T18:06:35.268Z,98.25
2022-11-02T18:11:41.576Z,97.57
2022-11-02T18:16:48.268Z,97.12
2022-11-02T18:21:54.185Z,96.55
2022-11-02T18:27:00.341Z,95.90
2022-11-02T18:32:06.628Z,95.16
2022-11-02T18:37:12.586Z,94.93
2022-11-02T18:42:18.748Z,94.69
2022-11-02T18:47:25.403Z,94.12
2022-11-02T18:52:32.488Z,93.75
2022-11-02T18:57:38.591Z,93.62
2022-11-02T19:02:44.772Z,93.20
2022-11-02T19:08:09.658Z,92.82
2022-11-02T19:13:16.120Z,92.37
2022-11-02T19:18:22.431Z,92.04
2022-11-02T19:23:28.475Z,91.46
2022-11-02T19:28:34.496Z,91.41
2022-11-02T19:33:40.821Z,91.20
2022-11-02T19:38:46.744Z,91.08
2022-11-02T19:43:53.402Z,90.83
2022-11-02T19:48:59.742Z,90.89
2022-11-02T19:54:06.391Z,90.70
2022-11-02T19:59:12.944Z,90.54
2022-11-02T20:04:19.335Z,90.74
2022-11-02T20:09:25.246Z,90.75
2022-11-02T20:14:31.428Z,90.72
2022-11-02T20:19:37.867Z,90.78
2022-11-02T20:24:44.133Z,90.85
2022-11-02T20:29:50.376Z,91.04
2022-11-02T20:34:56.246Z,91.19
2022-11-02T20:40:02.384Z,91.40
2022-11-02T20:45:10.435Z,91.53
2022-11-02T20:50:19.409Z,92.02
2022-11-02T20:55:29.975Z,92.53
2022-11-02T21:00:36.261Z,92.96
2022-11-02T21:05:42.797Z,93.50
2022-11-02T21:10:57.949Z,93.43
2022-11-02T21:16:05.953Z,93.08
2022-11-02T21:21:13.932Z,92.96
2022-11-02T21:26:19.802Z,93.38
2022-11-02T21:31:26.033Z,93.77
2022-11-02T21:36:32.075Z,94.05
2022-11-02T21:41:39.096Z,93.70
2022-11-02T21:46:45.091Z,93.65
2022-11-02T21:51:50.963Z,93.73
2022-11-02T21:56:58.251Z,93.55
2022-11-02T22:02:04.309Z,93.39
2022-11-02T22:07:10.666Z,93.46
2022-11-02T22:12:35.492Z,93.88
2022-11-02T22:17:49.549Z,95.20
2022-11-02T22:22:56.107Z,96.82
2022-11-02T22:28:02.094Z,97.75
2022-11-02T22:33:11.425Z,98.50
2022-11-02T22:38:36.017Z,99.44
2022-11-02T22:43:42.475Z,100.00
2022-11-02T22:48:50.222Z,100.00
2022-11-02T22:53:59.571Z,100.00
2022-11-02T22:59:06.137Z,100.00
2022-11-02T23:04:13.350Z,100.00
2022-11-02T23:09:19.463Z,99.92
2022-11-02T23:14:25.313Z,99.96
2022-11-02T23:19:31.803Z,99.66
2022-11-02T23:24:57.192Z,98.92
2022-11-02T23:30:22.422Z,98.18
2022-11-02T23:35:47.262Z,97.49
2022-11-02T23:40:56.209Z,97.19
2022-11-02T23:46:02.460Z,96.96
2022-11-02T23:51:27.874Z,96.84
2022-11-02T23:56:44.237Z,96.90
